SUCCESS DAM (SCC)

Elevation: 692' · TULE R basin · Operator: US Army Corps of Engineers

Provisional data, subject to change.
Query executed Tuesday at 6:51:15   clock

Select a sensor type for a plot of data.
Note: Reservoir Flows are daily averages.

Earlier

Date RES ELE    STORAGE    RES CHG    TOC STO    ABV TOC    OUTFLOW    INFLOW    FNF    PPT INC    TEMP MN    TEMP MX    WINDLEN    EVP PAN   
 FEET   AF   AF   AF   AF   CFS   CFS   CFS   INCHES   DEG F   DEG F   MILES   INCHES  
08/03/2014 596.13 10688 -27 82300 -71612 9 -2 -2 0.00 26 32 51 0.14
08/04/2014 596.02 10630 -58 82300 -71670 23 -2 -2 0.00 23 36 62 0.26
08/05/2014 595.88 10555 -75 82300 -71745 29 -3 -3 0.00 19 36 66 0.29
08/06/2014 595.74 10481 -74 82300 -71819 30 -2 -2 0.00 19 34 67 0.26
08/07/2014 595.54 10376 -105 82300 -71924 46 -2 -2 0.00 20 36 59 0.28
08/08/2014 594.91 10049 -327 82300 -72251 141 -19 -19 0.00 22 39 54 0.29
08/09/2014 594.33 9755 -294 82300 -72545 131 -12 -12 0.00 20 40 55 0.29
08/10/2014 593.73 9457 -298 82300 -72843 129 -17 -17 0.00 19 38 67 0.30
08/11/2014 593.18 9190 -267 82300 -73110 119 -11 -11 0.00 19 40 58 0.28
08/12/2014 592.63 8928 -262 82300 -73372 109 -18 -18 0.00 22 40 61 0.29
08/13/2014 592.18 8717 -211 82300 -73583 96 -6 -6 0.00 21 37 71 0.30
08/14/2014 591.71 8501 -216 82300 -73799 96 -8 -9 0.00 18 37 58 0.28
08/15/2014 591.24 8289 -212 82300 -74011 95 -8 -8 0.00 18 39 58 0.29
08/16/2014 590.78 8085 -204 82300 -74215 91 -8 -8 0.00 18 39 60 0.29
08/17/2014 590.33 7889 -196 82300 -74411 88 -6 -6 0.00 19 39 62 0.29
08/18/2014 589.79 7658 -231 82300 -74642 101 -11 -11 0.00 18 38 53 0.28
08/19/2014 589.19 7407 -251 82300 -74893 112 -11 -11 0.00 18 34 66 0.25
08/20/2014 588.58 7158 -249 82300 -75142 114 -8 -8 0.00 16 34 61 0.26
08/21/2014 587.95 6907 -251 82300 -75393 113 -10 -10 0.00 18 36 56 0.27
08/22/2014 587.33 6666 -241 82300 -75634 111 -7 -7 0.00 20 37 68 0.28
08/23/2014 586.70 6428 -238 82300 -75872 110 -7 -7 0.00 18 35 63 0.26
08/24/2014 586.09 6202 -226 82300 -76098 106 -5 -5 0.00 18 35 63 0.26
08/25/2014 585.50 5990 -212 82300 -76310 99 -4 -4 0.00 17 34 69 0.26
08/26/2014 584.94 5793 -197 82300 -76507 96 -0 0 0.00 15 33 59 0.25
08/27/2014 584.39 5603 -190 82300 -76697 92 -1 -- 0.00 20 37 66 0.28
08/28/2014 583.84 5418 -- 82300 -- 91 1 -- 0.00 19 39 60 0.28
08/29/2014 583.73 5382 -36 82300 -76918 12 -3 -- 0.00 18 38 65 0.26
08/30/2014 583.69 5369 -13 82300 -76931 -- -- -- -- -- -- -- --
08/31/2014 583.65 5356 -13 82300 -76944 -- -- -- -- -- -- -- --
09/01/2014 583.60 5339 -17 81313 -75974 -- -- -- -- -- -- -- --
09/02/2014 -- -- -- -- -- -- -- -- -- -- -- -- --

Later | Latest

Warning! This data is preliminary and subject to revision.

Download Data Now Download Data Now | Show SCC Map | Plot SCC Data | 1 Month SCC Data | Real-Time SCC Data | SCC Info